createdAt,value
2018-05-17T00:01:56.838Z,11.00
2018-05-17T00:04:25.285Z,11.10
2018-05-17T00:06:53.629Z,11.10
2018-05-17T00:09:22.255Z,11.00
2018-05-17T00:11:50.667Z,10.90
2018-05-17T00:14:20.075Z,10.80
2018-05-17T00:16:49.198Z,10.90
2018-05-17T00:19:17.502Z,11.00
2018-05-17T00:21:46.592Z,11.10
2018-05-17T00:24:14.875Z,10.90
2018-05-17T00:26:43.598Z,10.70
2018-05-17T00:29:11.930Z,10.70
2018-05-17T00:31:40.226Z,10.70
2018-05-17T00:34:08.522Z,10.80
2018-05-17T00:36:37.006Z,10.90
2018-05-17T00:39:05.311Z,10.90
2018-05-17T00:41:34.342Z,11.00
2018-05-17T00:44:02.695Z,10.80
2018-05-17T00:46:30.996Z,10.70
2018-05-17T00:48:59.299Z,10.60
2018-05-17T00:51:27.918Z,10.60
2018-05-17T00:53:56.582Z,10.70
2018-05-17T00:56:24.895Z,10.70
2018-05-17T00:58:53.238Z,10.60
2018-05-17T01:01:21.539Z,10.70
2018-05-17T01:03:49.594Z,10.80
2018-05-17T01:06:17.927Z,10.90
2018-05-17T01:08:46.224Z,11.10
2018-05-17T01:11:14.866Z,11.10
2018-05-17T01:13:43.966Z,11.10
2018-05-17T01:16:13.030Z,11.10
2018-05-17T01:18:42.027Z,11.10
2018-05-17T01:21:10.383Z,11.20
2018-05-17T01:23:38.995Z,11.00
2018-05-17T01:26:07.302Z,11.10
2018-05-17T01:28:35.657Z,11.20
2018-05-17T01:31:04.104Z,11.30
2018-05-17T01:33:32.391Z,11.50
2018-05-17T01:36:00.707Z,11.50
2018-05-17T01:38:29.624Z,11.40
2018-05-17T01:40:58.461Z,11.50
2018-05-17T01:43:27.659Z,11.60
2018-05-17T01:45:56.391Z,11.60
2018-05-17T01:48:24.686Z,11.70
2018-05-17T01:50:56.071Z,11.80
2018-05-17T01:53:24.370Z,11.90
2018-05-17T01:55:53.251Z,12.00
2018-05-17T01:58:21.576Z,11.80
2018-05-17T02:00:49.982Z,11.80
2018-05-17T02:03:18.550Z,11.90
2018-05-17T02:05:47.910Z,11.60
2018-05-17T02:08:16.335Z,11.60
2018-05-17T02:10:44.727Z,11.70
2018-05-17T02:13:13.103Z,11.70
2018-05-17T02:15:41.423Z,11.70
2018-05-17T02:18:10.406Z,11.80
2018-05-17T02:20:38.719Z,11.80
2018-05-17T02:23:07.695Z,11.60
2018-05-17T02:25:36.066Z,11.50
2018-05-17T02:28:04.402Z,11.70
2018-05-17T02:30:33.159Z,11.70
2018-05-17T02:33:02.266Z,11.70
2018-05-17T02:35:31.034Z,11.70
2018-05-17T02:37:59.337Z,11.80
2018-05-17T02:40:28.291Z,11.80
2018-05-17T02:42:56.594Z,11.80
2018-05-17T02:45:24.888Z,11.80
2018-05-17T02:47:53.899Z,11.70
2018-05-17T02:50:22.894Z,11.70
2018-05-17T02:52:51.491Z,11.80
2018-05-17T02:55:19.810Z,11.90
2018-05-17T02:57:48.404Z,11.80
2018-05-17T03:00:16.918Z,11.80
2018-05-17T03:02:45.263Z,11.90
2018-05-17T03:05:13.559Z,11.90
2018-05-17T03:07:41.854Z,11.90
2018-05-17T03:10:10.204Z,12.00
2018-05-17T03:12:39.219Z,12.00
2018-05-17T03:15:07.513Z,11.90
2018-05-17T03:17:36.486Z,11.90
2018-05-17T03:20:04.910Z,12.00
2018-05-17T03:22:33.271Z,12.10
2018-05-17T03:25:01.640Z,12.00
2018-05-17T03:27:29.932Z,11.90
2018-05-17T03:29:58.950Z,11.90
2018-05-17T03:32:27.774Z,11.90
2018-05-17T03:34:56.080Z,11.90
2018-05-17T03:37:24.387Z,11.90
2018-05-17T03:39:52.734Z,11.90
2018-05-17T03:42:21.179Z,12.00
2018-05-17T03:44:50.291Z,12.00
2018-05-17T03:47:19.243Z,12.00
2018-05-17T03:49:47.558Z,12.00
2018-05-17T03:52:15.851Z,12.10
2018-05-17T03:54:44.200Z,12.10
2018-05-17T03:57:12.785Z,12.00
2018-05-17T03:59:41.087Z,12.10
2018-05-17T04:15:47.591Z,12.10
2018-05-17T04:18:16.134Z,12.20
2018-05-17T04:20:44.906Z,12.20
2018-05-17T04:23:13.250Z,12.20
2018-05-17T04:25:41.547Z,12.20
2018-05-17T04:28:10.403Z,12.20
2018-05-17T04:30:38.736Z,12.30
2018-05-17T04:33:07.043Z,12.30
2018-05-17T04:35:35.431Z,12.20
2018-05-17T04:38:04.606Z,12.20
2018-05-17T04:40:33.158Z,12.20
2018-05-17T04:43:01.450Z,12.10
2018-05-17T04:45:29.885Z,12.10
2018-05-17T04:47:58.182Z,12.10
2018-05-17T04:50:26.543Z,12.20
2018-05-17T04:52:55.328Z,12.20
2018-05-17T04:55:23.862Z,12.20
2018-05-17T04:57:52.163Z,12.10
2018-05-17T05:00:20.499Z,12.10
2018-05-17T05:02:48.871Z,12.20
2018-05-17T05:05:17.234Z,12.10
2018-05-17T05:07:45.931Z,12.20
2018-05-17T05:10:14.238Z,12.20
2018-05-17T05:12:42.536Z,12.20
2018-05-17T05:15:10.873Z,12.20
2018-05-17T05:17:39.400Z,12.20
2018-05-17T05:20:07.690Z,12.20
2018-05-17T05:22:36.114Z,12.30
2018-05-17T05:25:05.759Z,12.30
2018-05-17T05:27:34.063Z,12.20
2018-05-17T05:30:02.513Z,12.20
2018-05-17T05:32:30.571Z,12.30
2018-05-17T05:34:59.619Z,12.30
2018-05-17T05:37:28.001Z,12.30
2018-05-17T05:39:56.863Z,12.30
2018-05-17T05:42:25.292Z,12.30
2018-05-17T05:44:53.656Z,12.30
2018-05-17T05:47:21.960Z,12.40
2018-05-17T05:49:50.367Z,12.50
2018-05-17T05:52:18.709Z,12.60
2018-05-17T05:54:47.713Z,12.60
2018-05-17T05:57:16.335Z,12.60
2018-05-17T05:59:44.762Z,12.60
2018-05-17T06:02:13.056Z,12.60
2018-05-17T06:04:41.346Z,12.60
2018-05-17T06:07:09.951Z,12.80
2018-05-17T06:09:40.257Z,12.80
2018-05-17T06:12:08.866Z,12.70
2018-05-17T06:14:37.304Z,12.90
2018-05-17T06:17:05.526Z,13.00
2018-05-17T06:19:33.889Z,13.00
2018-05-17T06:22:02.604Z,13.10
2018-05-17T06:24:30.963Z,13.20
2018-05-17T06:26:59.446Z,13.30
2018-05-17T06:29:27.598Z,13.60
2018-05-17T06:31:56.563Z,13.70
2018-05-17T06:34:26.015Z,13.50
2018-05-17T06:36:54.347Z,13.60
2018-05-17T06:39:22.635Z,13.70
2018-05-17T06:41:50.924Z,13.80
2018-05-17T06:44:20.446Z,13.90
2018-05-17T06:46:49.679Z,13.70
2018-05-17T06:49:17.971Z,13.50
2018-05-17T06:51:46.446Z,13.40
2018-05-17T06:54:14.742Z,13.40
2018-05-17T06:56:43.032Z,13.20
2018-05-17T06:59:11.690Z,13.00
2018-05-17T07:01:40.099Z,13.00
2018-05-17T07:04:08.387Z,12.90
2018-05-17T07:06:36.876Z,12.90
2018-05-17T07:09:05.979Z,12.80
2018-05-17T07:11:34.274Z,12.80
2018-05-17T07:14:02.613Z,12.90
2018-05-17T07:16:31.022Z,12.90
2018-05-17T07:19:00.103Z,12.90
2018-05-17T07:21:29.105Z,12.90
2018-05-17T07:23:57.903Z,13.00
2018-05-17T07:26:26.595Z,12.90
2018-05-17T07:28:55.174Z,12.90
2018-05-17T07:31:23.603Z,12.90
2018-05-17T07:33:52.154Z,12.80
2018-05-17T07:36:22.738Z,12.80
2018-05-17T07:38:51.590Z,12.80
2018-05-17T07:41:19.926Z,12.90
2018-05-17T07:43:48.670Z,12.80
2018-05-17T07:46:17.481Z,12.90
2018-05-17T07:48:45.897Z,12.90
2018-05-17T07:51:14.411Z,12.90
2018-05-17T07:53:43.791Z,12.80
2018-05-17T07:56:12.116Z,12.80
2018-05-17T07:58:40.462Z,12.70
2018-05-17T08:01:08.761Z,12.80
2018-05-17T08:03:38.083Z,12.80
2018-05-17T08:06:06.439Z,12.80
2018-05-17T08:08:34.738Z,12.70
2018-05-17T08:11:03.736Z,12.70
2018-05-17T08:13:33.479Z,12.60
2018-05-17T08:16:02.882Z,12.40
2018-05-17T08:18:32.278Z,12.50
2018-05-17T08:21:01.758Z,12.50
2018-05-17T08:23:30.123Z,12.60
2018-05-17T08:25:59.046Z,12.70
2018-05-17T08:28:27.347Z,12.70
2018-05-17T08:30:55.695Z,12.70
2018-05-17T08:33:24.264Z,12.80
2018-05-17T08:35:52.562Z,12.70
2018-05-17T08:38:22.179Z,12.70
2018-05-17T08:40:50.576Z,12.50
2018-05-17T08:43:19.330Z,12.40
2018-05-17T08:45:48.419Z,12.40
2018-05-17T08:48:18.222Z,12.10
2018-05-17T08:50:47.014Z,12.10
2018-05-17T08:53:15.811Z,12.10
2018-05-17T08:55:44.098Z,12.00
2018-05-17T08:58:12.447Z,12.00
2018-05-17T09:00:40.942Z,12.00
2018-05-17T09:03:10.032Z,12.00
2018-05-17T09:05:39.954Z,11.90
2018-05-17T09:08:09.038Z,11.80
2018-05-17T09:10:38.022Z,11.90
2018-05-17T09:13:06.375Z,11.80
2018-05-17T09:15:34.680Z,11.80
2018-05-17T09:18:03.198Z,11.90
2018-05-17T09:20:33.123Z,11.90
2018-05-17T09:23:01.587Z,11.90
2018-05-17T09:25:29.951Z,11.90
2018-05-17T09:27:58.764Z,11.90
2018-05-17T09:30:27.505Z,11.90
2018-05-17T09:32:56.631Z,11.90
2018-05-17T09:35:25.315Z,11.90
2018-05-17T09:37:53.610Z,12.00
2018-05-17T09:40:22.387Z,12.10
2018-05-17T09:42:50.682Z,12.00
2018-05-17T09:45:19.286Z,12.00
2018-05-17T09:47:48.227Z,12.10
2018-05-17T09:50:16.550Z,12.20
2018-05-17T09:52:45.387Z,12.40
2018-05-17T09:55:13.676Z,12.60
2018-05-17T09:57:41.998Z,12.50
2018-05-17T10:00:10.336Z,12.60
2018-05-17T10:02:38.956Z,12.70
2018-05-17T10:05:07.650Z,12.90
2018-05-17T10:07:35.975Z,12.80
2018-05-17T10:10:04.415Z,12.70
2018-05-17T10:12:33.585Z,12.60
2018-05-17T10:15:02.299Z,12.50
2018-05-17T10:17:30.767Z,12.70
2018-05-17T10:19:59.913Z,12.80
2018-05-17T10:22:28.607Z,12.80
2018-05-17T10:24:56.898Z,12.80
2018-05-17T10:27:27.206Z,12.70
2018-05-17T10:29:55.526Z,12.80
2018-05-17T10:32:23.838Z,12.90
2018-05-17T10:34:52.347Z,12.90
2018-05-17T10:37:21.146Z,13.10
2018-05-17T10:39:49.442Z,13.10
2018-05-17T10:42:17.964Z,13.50
2018-05-17T10:44:46.282Z,13.40
2018-05-17T10:47:15.058Z,13.40
2018-05-17T10:49:45.803Z,13.40
2018-05-17T10:52:14.795Z,13.30
2018-05-17T10:54:43.743Z,13.40
2018-05-17T10:57:12.031Z,13.50
2018-05-17T10:59:41.199Z,13.10
2018-05-17T11:02:09.751Z,13.20
2018-05-17T11:04:38.047Z,13.50
2018-05-17T11:07:06.446Z,13.70
2018-05-17T11:09:34.923Z,13.80
2018-05-17T11:12:04.363Z,13.80
2018-05-17T11:14:33.090Z,13.90
2018-05-17T11:17:01.419Z,13.70
2018-05-17T11:19:29.713Z,13.80
2018-05-17T11:21:58.130Z,13.80
2018-05-17T11:24:27.390Z,13.70
2018-05-17T11:26:55.688Z,13.40
2018-05-17T11:29:24.209Z,13.70
2018-05-17T11:31:52.505Z,13.70
2018-05-17T11:34:20.793Z,14.00
2018-05-17T11:36:49.661Z,14.00
2018-05-17T11:39:17.971Z,14.10
2018-05-17T11:41:46.259Z,13.90
2018-05-17T11:44:14.680Z,14.00
2018-05-17T11:46:42.910Z,13.90
2018-05-17T11:49:11.473Z,14.10
2018-05-17T11:51:39.802Z,14.20
2018-05-17T11:54:08.575Z,14.50
2018-05-17T11:56:36.869Z,14.20
2018-05-17T11:59:05.714Z,13.90
2018-05-17T12:01:34.015Z,13.70
2018-05-17T12:04:03.084Z,14.10
2018-05-17T12:06:32.167Z,14.20
2018-05-17T12:09:01.231Z,14.10
2018-05-17T12:11:30.289Z,13.80
2018-05-17T12:13:58.629Z,13.90
2018-05-17T12:16:26.923Z,14.00
2018-05-17T12:18:55.218Z,14.40
2018-05-17T12:21:23.547Z,14.00
2018-05-17T12:23:51.835Z,13.80
2018-05-17T12:26:20.759Z,13.80
2018-05-17T12:28:49.374Z,13.70
2018-05-17T12:31:17.671Z,13.90
2018-05-17T12:33:45.972Z,13.90
2018-05-17T12:36:14.663Z,14.20
2018-05-17T12:38:42.947Z,14.30
2018-05-17T12:41:11.234Z,14.50
2018-05-17T12:43:39.562Z,14.70
2018-05-17T12:46:09.139Z,14.70
2018-05-17T12:48:37.515Z,14.70
2018-05-17T12:51:06.249Z,14.60
2018-05-17T12:53:34.592Z,15.00
2018-05-17T12:56:03.027Z,15.30
2018-05-17T12:58:31.672Z,16.00
2018-05-17T13:01:00.682Z,16.30
2018-05-17T13:03:28.979Z,15.50
2018-05-17T13:05:57.806Z,15.80
2018-05-17T13:08:26.095Z,15.90
2018-05-17T13:10:54.459Z,15.70
2018-05-17T13:13:23.627Z,15.50
2018-05-17T13:15:52.376Z,15.50
2018-05-17T13:18:22.031Z,15.50
2018-05-17T13:20:51.439Z,16.20
2018-05-17T13:23:20.170Z,16.30
2018-05-17T13:25:49.676Z,16.50
2018-05-17T13:28:18.815Z,16.00
2018-05-17T13:30:47.750Z,16.00
2018-05-17T13:33:16.056Z,16.40
2018-05-17T13:35:44.427Z,17.00
2018-05-17T13:38:12.887Z,17.20
2018-05-17T13:40:41.688Z,17.10
2018-05-17T13:43:10.024Z,16.70
2018-05-17T13:45:38.311Z,16.50
2018-05-17T13:48:07.736Z,16.40
2018-05-17T13:50:36.199Z,16.40
2018-05-17T13:53:04.939Z,16.50
2018-05-17T13:55:33.326Z,16.40
2018-05-17T13:58:02.397Z,17.00
2018-05-17T14:00:30.694Z,17.00
2018-05-17T14:02:58.986Z,17.00
2018-05-17T14:05:27.305Z,16.80
2018-05-17T14:07:55.590Z,16.10
2018-05-17T14:10:23.879Z,15.90
2018-05-17T14:12:52.425Z,15.80
2018-05-17T14:15:21.419Z,16.00
2018-05-17T14:17:49.678Z,15.70
2018-05-17T14:20:18.811Z,15.60
2018-05-17T14:22:47.685Z,15.60
2018-05-17T14:25:15.971Z,15.60
2018-05-17T14:27:44.614Z,15.80
2018-05-17T14:30:12.910Z,15.80
2018-05-17T14:32:41.210Z,15.60
2018-05-17T14:35:09.557Z,15.80
2018-05-17T14:37:37.845Z,15.60
2018-05-17T14:40:06.147Z,16.30
2018-05-17T14:42:34.527Z,16.80
2018-05-17T14:45:02.840Z,17.30
2018-05-17T14:47:31.127Z,16.70
2018-05-17T14:49:59.458Z,16.60
2018-05-17T14:52:27.751Z,16.90
2018-05-17T14:54:56.043Z,17.20
2018-05-17T14:57:24.918Z,17.10
2018-05-17T14:59:53.210Z,17.00
2018-05-17T15:02:22.259Z,16.20
2018-05-17T15:04:51.274Z,16.20
2018-05-17T15:07:19.571Z,16.20
2018-05-17T15:09:48.643Z,16.20
2018-05-17T15:12:17.047Z,16.40
2018-05-17T15:14:45.504Z,16.50
2018-05-17T15:17:14.309Z,16.80
2018-05-17T15:19:42.645Z,17.00
2018-05-17T15:22:11.570Z,17.40
2018-05-17T15:24:39.892Z,17.60
2018-05-17T15:27:08.721Z,17.40
2018-05-17T15:29:37.151Z,17.50
2018-05-17T15:32:06.069Z,17.90
2018-05-17T15:34:34.518Z,18.20
2018-05-17T15:37:04.599Z,17.80
2018-05-17T15:39:32.872Z,17.20
2018-05-17T15:42:01.163Z,17.50
2018-05-17T15:44:29.796Z,18.40
2018-05-17T15:46:58.596Z,19.20
2018-05-17T15:49:26.899Z,18.70
2018-05-17T15:51:55.655Z,18.00
2018-05-17T15:54:24.332Z,18.00
2018-05-17T15:56:52.630Z,17.90
2018-05-17T15:59:20.931Z,17.80
2018-05-17T16:01:50.304Z,17.90
2018-05-17T16:04:18.646Z,18.00
2018-05-17T16:06:47.696Z,17.10
2018-05-17T16:09:16.514Z,17.10
2018-05-17T16:11:44.819Z,17.30
2018-05-17T16:14:13.162Z,17.40
2018-05-17T16:16:41.447Z,18.30
2018-05-17T16:19:09.735Z,18.40
2018-05-17T16:21:38.835Z,19.00
2018-05-17T16:24:09.071Z,19.10
2018-05-17T16:26:37.368Z,19.10
2018-05-17T16:29:05.708Z,19.00
2018-05-17T16:31:34.267Z,19.00
2018-05-17T16:34:02.554Z,18.00
2018-05-17T16:36:30.859Z,18.00
2018-05-17T16:39:00.558Z,17.70
2018-05-17T16:41:28.859Z,17.30
2018-05-17T16:43:57.187Z,17.40
2018-05-17T16:46:25.650Z,16.80
2018-05-17T16:48:53.939Z,17.20
2018-05-17T16:51:22.270Z,17.00
2018-05-17T16:53:50.962Z,16.70
2018-05-17T16:56:25.294Z,16.20
2018-05-17T16:58:53.581Z,16.10
2018-05-17T17:01:21.932Z,16.00
2018-05-17T17:03:50.262Z,15.80
2018-05-17T17:06:18.806Z,15.70
2018-05-17T17:08:47.666Z,15.70
2018-05-17T17:11:15.982Z,15.60
2018-05-17T17:13:44.267Z,15.70
2018-05-17T17:16:12.586Z,15.50
2018-05-17T17:18:41.668Z,15.40
2018-05-17T17:21:10.566Z,15.30
2018-05-17T17:23:38.862Z,15.20
2018-05-17T17:26:07.488Z,15.10
2018-05-17T17:28:36.233Z,15.10
2018-05-17T17:31:04.590Z,14.90
2018-05-17T17:33:32.967Z,14.90
2018-05-17T17:36:01.251Z,14.90
2018-05-17T17:38:30.089Z,14.90
2018-05-17T17:40:59.151Z,14.90
2018-05-17T17:43:28.394Z,14.90
2018-05-17T17:45:56.711Z,14.90
2018-05-17T17:48:24.997Z,14.80
2018-05-17T17:50:53.295Z,14.50
2018-05-17T17:53:21.626Z,14.50
2018-05-17T17:55:50.618Z,14.40
2018-05-17T17:58:19.732Z,14.40
2018-05-17T18:00:48.025Z,14.40
2018-05-17T18:03:16.318Z,14.30
2018-05-17T18:05:45.122Z,14.10
2018-05-17T18:08:13.430Z,14.00
2018-05-17T18:10:41.730Z,14.00
2018-05-17T18:13:10.104Z,13.90
2018-05-17T18:15:38.397Z,13.80
2018-05-17T18:18:07.499Z,13.60
2018-05-17T18:20:36.618Z,13.40
2018-05-17T18:23:05.451Z,13.40
2018-05-17T18:25:33.741Z,13.20
2018-05-17T18:28:02.086Z,13.20
2018-05-17T18:30:30.715Z,13.20
2018-05-17T18:32:59.486Z,13.20
2018-05-17T18:35:27.839Z,13.20
2018-05-17T18:37:56.291Z,13.00
2018-05-17T18:40:25.163Z,13.10
2018-05-17T18:42:53.711Z,12.90
2018-05-17T18:45:23.178Z,12.90
2018-05-17T18:47:51.559Z,13.00
2018-05-17T18:50:19.972Z,13.20
2018-05-17T18:52:48.280Z,13.30
2018-05-17T18:55:22.914Z,12.90
2018-05-17T18:57:45.674Z,12.90
2018-05-17T19:00:13.982Z,12.70
2018-05-17T19:02:42.709Z,12.40
2018-05-17T19:05:10.948Z,12.30
2018-05-17T19:07:39.234Z,12.20
2018-05-17T19:10:07.571Z,12.20
2018-05-17T19:12:37.104Z,12.10
2018-05-17T19:15:05.401Z,12.00
2018-05-17T19:17:34.207Z,11.80
2018-05-17T19:20:02.560Z,11.70
2018-05-17T19:22:30.859Z,11.50
2018-05-17T19:24:59.275Z,11.30
2018-05-17T19:27:27.930Z,11.10
2018-05-17T19:29:56.227Z,11.10
2018-05-17T19:32:24.820Z,11.10
2018-05-17T19:34:53.113Z,11.10
2018-05-17T19:37:21.493Z,11.10
2018-05-17T19:39:49.866Z,10.90
2018-05-17T19:42:18.150Z,10.90
2018-05-17T19:44:46.462Z,10.90
2018-05-17T19:47:14.817Z,10.80
2018-05-17T19:49:43.119Z,10.90
2018-05-17T19:52:11.581Z,10.80
2018-05-17T19:54:39.948Z,10.60
2018-05-17T19:57:08.274Z,10.50
2018-05-17T19:59:36.733Z,10.60
2018-05-17T20:02:05.003Z,10.60
2018-05-17T20:04:33.423Z,10.60
2018-05-17T20:07:02.834Z,10.40
2018-05-17T20:09:31.270Z,10.40
2018-05-17T20:11:59.923Z,10.30
2018-05-17T20:14:28.399Z,10.20
2018-05-17T20:16:56.776Z,10.30
2018-05-17T20:19:25.359Z,10.50
2018-05-17T20:21:54.208Z,10.70
2018-05-17T20:24:22.631Z,10.80
2018-05-17T20:26:50.923Z,10.70
2018-05-17T20:29:19.257Z,10.70
2018-05-17T20:31:48.061Z,10.60
2018-05-17T20:34:16.387Z,10.50
2018-05-17T20:36:44.748Z,10.50
2018-05-17T20:39:13.819Z,10.40
2018-05-17T20:41:42.175Z,10.40
2018-05-17T20:44:10.554Z,10.40
2018-05-17T20:46:39.435Z,10.60
2018-05-17T20:49:07.719Z,10.60
2018-05-17T20:51:36.781Z,10.60
2018-05-17T20:54:05.078Z,10.50
2018-05-17T20:56:33.654Z,10.50
2018-05-17T20:59:02.255Z,10.40
2018-05-17T21:01:31.163Z,10.30
2018-05-17T21:04:00.405Z,10.10
2018-05-17T21:06:28.718Z,10.00
2018-05-17T21:08:57.071Z,10.00
2018-05-17T21:11:25.392Z,10.00
2018-05-17T21:13:53.747Z,10.10
2018-05-17T21:16:22.255Z,10.20
2018-05-17T21:18:50.599Z,10.10
2018-05-17T21:21:18.883Z,9.90
2018-05-17T21:23:47.438Z,9.70
2018-05-17T21:26:15.767Z,9.50
2018-05-17T21:28:44.276Z,9.60
2018-05-17T21:31:12.562Z,9.50
2018-05-17T21:33:40.904Z,9.60
2018-05-17T21:36:09.201Z,9.60
2018-05-17T21:38:37.526Z,9.70
2018-05-17T21:41:06.588Z,9.60
2018-05-17T21:43:35.320Z,9.60
2018-05-17T21:46:03.601Z,9.40
2018-05-17T21:48:31.932Z,9.20
2018-05-17T21:51:01.038Z,9.10
2018-05-17T21:53:29.598Z,9.00
2018-05-17T21:55:57.882Z,9.00
2018-05-17T21:58:32.060Z,9.00
2018-05-17T22:01:00.918Z,8.90
2018-05-17T22:03:29.223Z,8.90
2018-05-17T22:05:57.511Z,8.90
2018-05-17T22:08:26.689Z,8.90
2018-05-17T22:10:54.970Z,9.00
2018-05-17T22:13:23.267Z,8.90
2018-05-17T22:15:51.670Z,8.80
2018-05-17T22:18:19.958Z,8.80
2018-05-17T22:20:48.280Z,8.80
2018-05-17T22:23:16.635Z,8.90
2018-05-17T22:25:44.981Z,9.00
2018-05-17T22:28:13.266Z,9.00
2018-05-17T22:30:41.582Z,8.80
2018-05-17T22:33:09.858Z,8.60
2018-05-17T22:35:38.159Z,8.60
2018-05-17T22:38:06.538Z,8.50
2018-05-17T22:40:34.867Z,8.40
2018-05-17T22:43:03.147Z,8.40
2018-05-17T22:45:31.478Z,8.40
2018-05-17T22:47:59.762Z,8.30
2018-05-17T22:50:28.812Z,8.30
2018-05-17T22:52:56.995Z,8.30
2018-05-17T22:55:25.547Z,8.40
2018-05-17T22:58:11.619Z,8.40
2018-05-17T23:00:39.906Z,8.30
2018-05-17T23:03:08.838Z,8.20
2018-05-17T23:05:37.210Z,8.30
2018-05-17T23:08:05.607Z,8.30
2018-05-17T23:10:33.895Z,8.20
2018-05-17T23:13:02.115Z,8.20
2018-05-17T23:15:30.425Z,8.20
2018-05-17T23:17:58.714Z,8.10
2018-05-17T23:20:27.051Z,8.00
2018-05-17T23:22:55.336Z,8.00
2018-05-17T23:25:24.050Z,7.90
2018-05-17T23:27:52.683Z,7.90
2018-05-17T23:30:20.900Z,7.90
2018-05-17T23:32:49.228Z,7.90
2018-05-17T23:35:18.488Z,8.00
2018-05-17T23:37:46.774Z,7.90
2018-05-17T23:53:42.415Z,7.90
2018-05-17T23:56:10.743Z,7.90
2018-05-17T23:58:39.037Z,7.90
